Aérodrome :
LOGIN :

S'inscrire | Disclaimer

   EN    FR    IT 

 










Légende :    VFR   VFR Marginal   IFR   IFR Intensif   IFR Très Intensif
Visi : 
Plafond : 
>= 8 km
>= 3000ft
5 à 8 km
1000 à 3000 ft
1500m à 5 km
500 à 1000 ft
800 à 1500m
200 à 500 ft
< 800m
< 200 ft
Symboles :   Orages  Brouillard  Fortes neiges  Fortes précipitations  Vent > 20 kt
SIGMETs :   Divers  Orages  Givrage  Turbulence  Onde Orograph.  Cendres Volcan.






- Altitude de l'aérodrome : 11 ft
- Code IATA : PVK


LGPZ - Aktion Lefkada Preveza

DERNIER METAR :
  • 241320Z 25009KT CAVOK 17/11 Q1017

METARs EXPIRÉS :
  • 241250Z 25008KT CAVOK 16/11 Q1018 RMK FEW180 BLU
  • 241220Z 25008KT CAVOK 17/11 Q1018
  • 241150Z 25007KT CAVOK 17/10 Q1018
  • 241120Z 25007KT CAVOK 16/10 Q1018
  • 241050Z 25005KT CAVOK 16/09 Q1019 RMK FEW180 BLU

TAF TAF LGPZ
Valide du 24 à 12h jusqu'au 25 à 12h UTC


241100Z 2412/2512 28008KT 9999 FEW020
BECMG 2418/2420 08008KT
BECMG 2507/2509 22008KT



MET'MAP, la Météo Aéronautique d'un coup d'oeil ! - Copyright ORBIFLY Décembre 2007 - Disclaimer

ORBIFLY MET'MAP TEAM :

Programmation & Développement : Alexandra Zaïnal
Sur une idée originale de : Baudouin d'Aumeries
Assistance à la programmation : Marc-Olivier Méhu
Soutien technique & logistique : Manuel Goepfert

Contact : metmap@orbifly.com




SOURCES & CREDITS :

   NOAA